sensor_id;sensor_type;location;lat;lon;timestamp;pressure;altitude;pressure_sealevel;temperature;humidity
56689;BME280;42565;53.342;-1.534;2022-07-23T00:01:58;99304.57;;;17.88;48.45
56689;BME280;42565;53.342;-1.534;2022-07-23T00:04:25;99298.86;;;17.80;48.31
56689;BME280;42565;53.342;-1.534;2022-07-23T00:06:52;99292.74;;;18.09;48.23
56689;BME280;42565;53.342;-1.534;2022-07-23T00:09:19;99292.76;;;17.83;48.88
56689;BME280;42565;53.342;-1.534;2022-07-23T00:11:46;99295.24;;;17.66;48.84
56689;BME280;42565;53.342;-1.534;2022-07-23T00:14:13;99291.87;;;17.71;49.47
56689;BME280;42565;53.342;-1.534;2022-07-23T00:16:40;99293.94;;;17.94;49.29
56689;BME280;42565;53.342;-1.534;2022-07-23T00:19:07;99297.57;;;17.82;49.80
56689;BME280;42565;53.342;-1.534;2022-07-23T00:21:33;99293.48;;;17.73;50.38
56689;BME280;42565;53.342;-1.534;2022-07-23T00:24:00;99292.16;;;17.86;50.07
56689;BME280;42565;53.342;-1.534;2022-07-23T00:26:27;99293.97;;;17.86;50.37
56689;BME280;42565;53.342;-1.534;2022-07-23T00:28:55;99297.06;;;17.69;50.86
56689;BME280;42565;53.342;-1.534;2022-07-23T00:31:22;99295.07;;;17.61;51.01
56689;BME280;42565;53.342;-1.534;2022-07-23T00:33:49;99295.20;;;17.44;51.29
56689;BME280;42565;53.342;-1.534;2022-07-23T00:36:15;99294.84;;;17.75;51.63
56689;BME280;42565;53.342;-1.534;2022-07-23T00:38:42;99296.70;;;17.52;51.79
56689;BME280;42565;53.342;-1.534;2022-07-23T00:41:09;99292.01;;;17.70;51.42
56689;BME280;42565;53.342;-1.534;2022-07-23T00:43:36;99290.21;;;17.66;51.19
56689;BME280;42565;53.342;-1.534;2022-07-23T00:46:02;99285.99;;;17.86;50.80
56689;BME280;42565;53.342;-1.534;2022-07-23T00:48:30;99283.38;;;18.12;50.18
56689;BME280;42565;53.342;-1.534;2022-07-23T00:50:57;99277.71;;;17.92;50.04
56689;BME280;42565;53.342;-1.534;2022-07-23T00:53:24;99276.06;;;18.12;49.81
56689;BME280;42565;53.342;-1.534;2022-07-23T00:55:53;99268.95;;;17.92;50.06
56689;BME280;42565;53.342;-1.534;2022-07-23T00:58:20;99270.45;;;17.69;50.58
56689;BME280;42565;53.342;-1.534;2022-07-23T01:00:48;99267.46;;;17.71;50.36
56689;BME280;42565;53.342;-1.534;2022-07-23T01:03:15;99262.38;;;17.82;50.17
56689;BME280;42565;53.342;-1.534;2022-07-23T01:05:42;99258.03;;;18.17;49.83
56689;BME280;42565;53.342;-1.534;2022-07-23T01:08:10;99257.60;;;18.26;49.55
56689;BME280;42565;53.342;-1.534;2022-07-23T01:10:37;99256.59;;;17.91;50.05
56689;BME280;42565;53.342;-1.534;2022-07-23T01:13:06;99256.16;;;17.88;50.11
56689;BME280;42565;53.342;-1.534;2022-07-23T01:15:35;99258.44;;;17.95;50.13
56689;BME280;42565;53.342;-1.534;2022-07-23T01:18:03;99259.15;;;17.60;50.09
56689;BME280;42565;53.342;-1.534;2022-07-23T01:20:32;99251.70;;;17.37;51.21
56689;BME280;42565;53.342;-1.534;2022-07-23T01:23:00;99246.60;;;16.75;51.88
56689;BME280;42565;53.342;-1.534;2022-07-23T01:25:27;99245.08;;;17.39;51.13
56689;BME280;42565;53.342;-1.534;2022-07-23T01:28:54;99247.14;;;18.11;50.99
56689;BME280;42565;53.342;-1.534;2022-07-23T01:31:22;99247.06;;;17.64;51.03
56689;BME280;42565;53.342;-1.534;2022-07-23T01:33:49;99249.03;;;17.47;51.31
56689;BME280;42565;53.342;-1.534;2022-07-23T01:36:17;99251.28;;;17.75;50.68
56689;BME280;42565;53.342;-1.534;2022-07-23T01:38:44;99247.91;;;17.60;50.73
56689;BME280;42565;53.342;-1.534;2022-07-23T01:41:12;99250.66;;;17.76;50.51
56689;BME280;42565;53.342;-1.534;2022-07-23T01:43:39;99248.52;;;17.89;50.48
56689;BME280;42565;53.342;-1.534;2022-07-23T01:46:07;99249.39;;;18.14;50.44
56689;BME280;42565;53.342;-1.534;2022-07-23T01:48:35;99249.43;;;18.25;50.29
56689;BME280;42565;53.342;-1.534;2022-07-23T01:51:02;99248.43;;;17.62;50.31
56689;BME280;42565;53.342;-1.534;2022-07-23T01:53:30;99247.36;;;18.22;49.99
56689;BME280;42565;53.342;-1.534;2022-07-23T01:55:58;99246.45;;;17.82;50.28
56689;BME280;42565;53.342;-1.534;2022-07-23T01:58:25;99250.88;;;18.10;50.69
56689;BME280;42565;53.342;-1.534;2022-07-23T02:00:52;99251.12;;;17.88;51.10
56689;BME280;42565;53.342;-1.534;2022-07-23T02:03:20;99250.25;;;18.09;50.98
56689;BME280;42565;53.342;-1.534;2022-07-23T02:05:48;99245.99;;;17.61;51.68
56689;BME280;42565;53.342;-1.534;2022-07-23T02:08:15;99238.39;;;18.15;51.19
56689;BME280;42565;53.342;-1.534;2022-07-23T02:10:43;99240.81;;;18.35;50.31
56689;BME280;42565;53.342;-1.534;2022-07-23T02:13:10;99239.73;;;17.69;51.87
56689;BME280;42565;53.342;-1.534;2022-07-23T02:15:37;99234.79;;;17.62;51.29
56689;BME280;42565;53.342;-1.534;2022-07-23T02:18:05;99233.77;;;17.78;51.43
56689;BME280;42565;53.342;-1.534;2022-07-23T02:20:32;99233.04;;;17.84;51.49
56689;BME280;42565;53.342;-1.534;2022-07-23T02:22:59;99227.58;;;17.75;50.57
56689;BME280;42565;53.342;-1.534;2022-07-23T02:25:26;99227.86;;;18.32;49.98
56689;BME280;42565;53.342;-1.534;2022-07-23T02:28:03;99230.99;;;18.48;49.81
56689;BME280;42565;53.342;-1.534;2022-07-23T02:30:31;99230.60;;;18.76;49.70
56689;BME280;42565;53.342;-1.534;2022-07-23T02:32:58;99236.04;;;18.06;50.73
56689;BME280;42565;53.342;-1.534;2022-07-23T02:35:26;99235.90;;;18.24;50.65
56689;BME280;42565;53.342;-1.534;2022-07-23T02:37:53;99229.39;;;18.54;49.80
56689;BME280;42565;53.342;-1.534;2022-07-23T02:40:21;99228.89;;;18.71;49.62
56689;BME280;42565;53.342;-1.534;2022-07-23T02:42:49;99235.14;;;18.60;49.89
56689;BME280;42565;53.342;-1.534;2022-07-23T02:45:17;99241.06;;;18.12;50.57
56689;BME280;42565;53.342;-1.534;2022-07-23T02:47:44;99241.90;;;18.55;50.58
56689;BME280;42565;53.342;-1.534;2022-07-23T02:50:11;99237.77;;;17.86;51.56
56689;BME280;42565;53.342;-1.534;2022-07-23T02:52:39;99240.50;;;17.46;52.57
56689;BME280;42565;53.342;-1.534;2022-07-23T02:55:07;99232.46;;;17.43;52.69
56689;BME280;42565;53.342;-1.534;2022-07-23T02:57:35;99228.98;;;17.46;53.26
56689;BME280;42565;53.342;-1.534;2022-07-23T03:00:05;99225.52;;;17.19;53.33
56689;BME280;42565;53.342;-1.534;2022-07-23T03:02:33;99224.92;;;17.35;53.67
56689;BME280;42565;53.342;-1.534;2022-07-23T03:05:00;99224.50;;;17.37;53.09
56689;BME280;42565;53.342;-1.534;2022-07-23T03:07:27;99223.53;;;17.80;51.87
56689;BME280;42565;53.342;-1.534;2022-07-23T03:09:55;99226.16;;;17.88;51.98
56689;BME280;42565;53.342;-1.534;2022-07-23T03:12:23;99229.69;;;17.90;51.84
56689;BME280;42565;53.342;-1.534;2022-07-23T03:14:49;99233.02;;;17.66;52.31
56689;BME280;42565;53.342;-1.534;2022-07-23T03:17:17;99233.92;;;17.50;52.41
56689;BME280;42565;53.342;-1.534;2022-07-23T03:19:44;99231.84;;;17.52;52.41
56689;BME280;42565;53.342;-1.534;2022-07-23T03:22:11;99235.24;;;17.45;52.52
56689;BME280;42565;53.342;-1.534;2022-07-23T03:24:38;99241.06;;;17.46;52.58
56689;BME280;42565;53.342;-1.534;2022-07-23T03:28:51;99241.64;;;18.10;52.55
56689;BME280;42565;53.342;-1.534;2022-07-23T03:31:18;99237.78;;;17.84;52.26
56689;BME280;42565;53.342;-1.534;2022-07-23T03:33:46;99236.20;;;17.74;51.92
56689;BME280;42565;53.342;-1.534;2022-07-23T03:36:12;99230.07;;;17.18;53.02
56689;BME280;42565;53.342;-1.534;2022-07-23T03:38:39;99229.31;;;17.50;53.44
56689;BME280;42565;53.342;-1.534;2022-07-23T03:41:06;99228.07;;;17.49;53.17
56689;BME280;42565;53.342;-1.534;2022-07-23T03:43:33;99226.54;;;17.16;53.52
56689;BME280;42565;53.342;-1.534;2022-07-23T03:46:00;99224.87;;;17.30;53.58
56689;BME280;42565;53.342;-1.534;2022-07-23T03:48:27;99221.22;;;17.60;54.09
56689;BME280;42565;53.342;-1.534;2022-07-23T03:50:55;99225.04;;;17.82;53.73
56689;BME280;42565;53.342;-1.534;2022-07-23T03:53:22;99223.33;;;17.73;54.17
56689;BME280;42565;53.342;-1.534;2022-07-23T03:55:49;99226.01;;;17.70;54.17
56689;BME280;42565;53.342;-1.534;2022-07-23T03:58:16;99217.18;;;17.21;54.71
56689;BME280;42565;53.342;-1.534;2022-07-23T04:00:43;99217.61;;;17.65;54.96
56689;BME280;42565;53.342;-1.534;2022-07-23T04:03:10;99215.05;;;16.53;55.97
56689;BME280;42565;53.342;-1.534;2022-07-23T04:05:38;99215.61;;;16.38;57.82
56689;BME280;42565;53.342;-1.534;2022-07-23T04:08:05;99217.53;;;15.96;59.47
56689;BME280;42565;53.342;-1.534;2022-07-23T04:10:32;99213.20;;;16.44;58.08
56689;BME280;42565;53.342;-1.534;2022-07-23T04:12:59;99205.49;;;16.34;56.39
56689;BME280;42565;53.342;-1.534;2022-07-23T04:15:27;99204.58;;;17.54;54.62
56689;BME280;42565;53.342;-1.534;2022-07-23T04:17:54;99205.81;;;17.65;54.03
56689;BME280;42565;53.342;-1.534;2022-07-23T04:20:21;99208.78;;;17.78;53.63
56689;BME280;42565;53.342;-1.534;2022-07-23T04:22:48;99210.48;;;17.26;53.87
56689;BME280;42565;53.342;-1.534;2022-07-23T04:25:15;99214.09;;;17.36;53.75
56689;BME280;42565;53.342;-1.534;2022-07-23T04:27:42;99217.20;;;17.72;53.69
56689;BME280;42565;53.342;-1.534;2022-07-23T04:30:09;99221.53;;;17.58;53.36
56689;BME280;42565;53.342;-1.534;2022-07-23T04:32:36;99217.91;;;17.46;53.36
56689;BME280;42565;53.342;-1.534;2022-07-23T04:35:03;99205.88;;;17.35;53.72
56689;BME280;42565;53.342;-1.534;2022-07-23T04:37:31;99205.31;;;17.50;54.06
56689;BME280;42565;53.342;-1.534;2022-07-23T04:39:58;99202.86;;;17.32;54.09
56689;BME280;42565;53.342;-1.534;2022-07-23T04:42:25;99203.33;;;17.63;53.47
56689;BME280;42565;53.342;-1.534;2022-07-23T04:44:52;99204.32;;;18.13;53.33
56689;BME280;42565;53.342;-1.534;2022-07-23T04:47:19;99202.76;;;17.91;52.68
56689;BME280;42565;53.342;-1.534;2022-07-23T04:49:46;99205.77;;;17.81;52.87
56689;BME280;42565;53.342;-1.534;2022-07-23T04:52:14;99207.36;;;17.56;53.02
56689;BME280;42565;53.342;-1.534;2022-07-23T04:54:41;99211.77;;;17.65;53.26
56689;BME280;42565;53.342;-1.534;2022-07-23T04:57:07;99213.33;;;17.54;53.74
56689;BME280;42565;53.342;-1.534;2022-07-23T04:59:34;99210.40;;;17.32;54.57
56689;BME280;42565;53.342;-1.534;2022-07-23T05:02:01;99210.66;;;17.54;54.42
56689;BME280;42565;53.342;-1.534;2022-07-23T05:04:28;99208.97;;;17.34;54.79
56689;BME280;42565;53.342;-1.534;2022-07-23T05:06:56;99209.91;;;17.38;54.79
56689;BME280;42565;53.342;-1.534;2022-07-23T05:09:23;99208.16;;;17.59;54.19
56689;BME280;42565;53.342;-1.534;2022-07-23T05:11:50;99207.12;;;17.92;53.73
56689;BME280;42565;53.342;-1.534;2022-07-23T05:14:16;99209.69;;;17.91;53.40
56689;BME280;42565;53.342;-1.534;2022-07-23T05:16:43;99205.89;;;17.65;54.13
56689;BME280;42565;53.342;-1.534;2022-07-23T05:19:11;99208.25;;;18.03;53.64
56689;BME280;42565;53.342;-1.534;2022-07-23T05:21:37;99210.44;;;18.26;53.26
56689;BME280;42565;53.342;-1.534;2022-07-23T05:24:06;99211.35;;;18.23;53.18
56689;BME280;42565;53.342;-1.534;2022-07-23T05:28:04;99209.55;;;18.32;53.16
56689;BME280;42565;53.342;-1.534;2022-07-23T05:30:31;99210.93;;;17.59;54.39
56689;BME280;42565;53.342;-1.534;2022-07-23T05:32:58;99211.68;;;17.73;53.99
56689;BME280;42565;53.342;-1.534;2022-07-23T05:35:26;99216.43;;;17.74;54.60
56689;BME280;42565;53.342;-1.534;2022-07-23T05:37:53;99217.63;;;18.06;54.24
56689;BME280;42565;53.342;-1.534;2022-07-23T05:40:21;99209.04;;;17.85;54.71
56689;BME280;42565;53.342;-1.534;2022-07-23T05:42:48;99211.92;;;18.18;53.69
56689;BME280;42565;53.342;-1.534;2022-07-23T05:45:15;99213.01;;;17.80;54.33
56689;BME280;42565;53.342;-1.534;2022-07-23T05:47:43;99219.48;;;17.62;54.91
56689;BME280;42565;53.342;-1.534;2022-07-23T05:50:11;99218.05;;;17.30;55.53
56689;BME280;42565;53.342;-1.534;2022-07-23T05:52:39;99213.05;;;17.44;55.77
56689;BME280;42565;53.342;-1.534;2022-07-23T05:55:08;99216.26;;;17.41;55.87
56689;BME280;42565;53.342;-1.534;2022-07-23T05:57:37;99219.89;;;17.79;54.97
56689;BME280;42565;53.342;-1.534;2022-07-23T06:00:06;99211.60;;;17.22;55.40
56689;BME280;42565;53.342;-1.534;2022-07-23T06:02:33;99209.29;;;17.41;55.61
56689;BME280;42565;53.342;-1.534;2022-07-23T06:05:00;99208.93;;;17.88;54.44
56689;BME280;42565;53.342;-1.534;2022-07-23T06:07:27;99202.45;;;18.32;53.89
56689;BME280;42565;53.342;-1.534;2022-07-23T06:09:55;99198.73;;;18.57;53.73
56689;BME280;42565;53.342;-1.534;2022-07-23T06:12:22;99201.12;;;18.23;53.83
56689;BME280;42565;53.342;-1.534;2022-07-23T06:14:49;99208.94;;;18.16;54.10
56689;BME280;42565;53.342;-1.534;2022-07-23T06:17:16;99212.05;;;17.64;55.69
56689;BME280;42565;53.342;-1.534;2022-07-23T06:19:44;99210.59;;;17.62;55.62
56689;BME280;42565;53.342;-1.534;2022-07-23T06:22:11;99207.07;;;17.76;55.48
56689;BME280;42565;53.342;-1.534;2022-07-23T06:24:38;99206.29;;;17.92;55.36
56689;BME280;42565;53.342;-1.534;2022-07-23T06:27:35;99204.14;;;18.55;54.66
56689;BME280;42565;53.342;-1.534;2022-07-23T06:30:03;99202.61;;;18.05;55.37
56689;BME280;42565;53.342;-1.534;2022-07-23T06:32:30;99203.55;;;18.02;55.52
56689;BME280;42565;53.342;-1.534;2022-07-23T06:34:57;99207.30;;;16.86;57.77
56689;BME280;42565;53.342;-1.534;2022-07-23T06:37:25;99211.74;;;17.68;55.93
56689;BME280;42565;53.342;-1.534;2022-07-23T06:39:52;99207.09;;;17.86;56.70
56689;BME280;42565;53.342;-1.534;2022-07-23T06:42:19;99205.90;;;17.59;56.04
56689;BME280;42565;53.342;-1.534;2022-07-23T06:44:47;99210.62;;;17.79;55.47
56689;BME280;42565;53.342;-1.534;2022-07-23T06:47:14;99212.69;;;17.78;54.84
56689;BME280;42565;53.342;-1.534;2022-07-23T06:49:41;99210.11;;;17.86;54.29
56689;BME280;42565;53.342;-1.534;2022-07-23T06:52:08;99206.07;;;18.34;53.94
56689;BME280;42565;53.342;-1.534;2022-07-23T06:54:36;99204.87;;;18.54;53.13
56689;BME280;42565;53.342;-1.534;2022-07-23T06:57:03;99207.59;;;18.34;53.56
56689;BME280;42565;53.342;-1.534;2022-07-23T06:59:30;99213.77;;;18.48;53.04
56689;BME280;42565;53.342;-1.534;2022-07-23T07:01:58;99215.80;;;18.95;52.40
56689;BME280;42565;53.342;-1.534;2022-07-23T07:04:25;99211.32;;;18.76;54.18
56689;BME280;42565;53.342;-1.534;2022-07-23T07:06:52;99212.52;;;19.11;52.46
56689;BME280;42565;53.342;-1.534;2022-07-23T07:09:19;99213.82;;;18.86;52.71
56689;BME280;42565;53.342;-1.534;2022-07-23T07:11:46;99215.35;;;18.94;51.71
56689;BME280;42565;53.342;-1.534;2022-07-23T07:14:13;99217.10;;;19.01;51.32
56689;BME280;42565;53.342;-1.534;2022-07-23T07:16:40;99214.59;;;19.00;52.40
56689;BME280;42565;53.342;-1.534;2022-07-23T07:19:08;99211.92;;;18.86;52.55
56689;BME280;42565;53.342;-1.534;2022-07-23T07:21:34;99211.76;;;18.65;53.02
56689;BME280;42565;53.342;-1.534;2022-07-23T07:24:01;99207.15;;;18.39;53.02
56689;BME280;42565;53.342;-1.534;2022-07-23T07:26:29;99212.42;;;19.02;52.10
56689;BME280;42565;53.342;-1.534;2022-07-23T07:28:56;99211.14;;;19.26;50.49
56689;BME280;42565;53.342;-1.534;2022-07-23T07:31:23;99214.69;;;19.33;50.87
56689;BME280;42565;53.342;-1.534;2022-07-23T07:33:50;99218.08;;;19.05;52.93
56689;BME280;42565;53.342;-1.534;2022-07-23T07:36:17;99214.58;;;19.23;51.04
56689;BME280;42565;53.342;-1.534;2022-07-23T07:38:44;99212.40;;;19.43;50.70
56689;BME280;42565;53.342;-1.534;2022-07-23T07:41:11;99211.80;;;19.30;50.53
56689;BME280;42565;53.342;-1.534;2022-07-23T07:43:38;99208.32;;;19.15;49.83
56689;BME280;42565;53.342;-1.534;2022-07-23T07:46:06;99206.50;;;19.74;48.89
56689;BME280;42565;53.342;-1.534;2022-07-23T07:48:33;99205.11;;;19.91;48.94
56689;BME280;42565;53.342;-1.534;2022-07-23T07:51:00;99204.70;;;19.61;49.81
56689;BME280;42565;53.342;-1.534;2022-07-23T07:53:28;99209.62;;;19.12;50.07
56689;BME280;42565;53.342;-1.534;2022-07-23T07:55:55;99206.67;;;19.18;50.77
56689;BME280;42565;53.342;-1.534;2022-07-23T07:58:23;99200.67;;;19.91;50.30
56689;BME280;42565;53.342;-1.534;2022-07-23T08:00:50;99197.58;;;19.79;50.45
56689;BME280;42565;53.342;-1.534;2022-07-23T08:03:17;99195.99;;;19.14;50.63
56689;BME280;42565;53.342;-1.534;2022-07-23T08:05:44;99196.27;;;19.62;50.37
56689;BME280;42565;53.342;-1.534;2022-07-23T08:08:11;99198.34;;;19.50;51.52
56689;BME280;42565;53.342;-1.534;2022-07-23T08:10:38;99202.86;;;19.39;52.59
56689;BME280;42565;53.342;-1.534;2022-07-23T08:13:05;99211.51;;;18.59;53.15
56689;BME280;42565;53.342;-1.534;2022-07-23T08:15:32;99207.39;;;18.72;53.21
56689;BME280;42565;53.342;-1.534;2022-07-23T08:17:59;99202.53;;;18.55;52.56
56689;BME280;42565;53.342;-1.534;2022-07-23T08:20:26;99198.96;;;18.80;52.63
56689;BME280;42565;53.342;-1.534;2022-07-23T08:22:56;99204.74;;;19.21;51.46
56689;BME280;42565;53.342;-1.534;2022-07-23T08:25:25;99200.23;;;18.86;51.72
56689;BME280;42565;53.342;-1.534;2022-07-23T08:27:53;99200.76;;;17.74;54.71
56689;BME280;42565;53.342;-1.534;2022-07-23T08:30:20;99199.57;;;17.28;56.03
56689;BME280;42565;53.342;-1.534;2022-07-23T08:32:51;99198.08;;;16.93;55.61
56689;BME280;42565;53.342;-1.534;2022-07-23T08:35:23;99201.15;;;17.39;55.11
56689;BME280;42565;53.342;-1.534;2022-07-23T08:37:51;99198.61;;;17.19;55.97
56689;BME280;42565;53.342;-1.534;2022-07-23T08:40:19;99195.33;;;17.54;56.45
56689;BME280;42565;53.342;-1.534;2022-07-23T08:42:49;99190.57;;;18.28;54.87
56689;BME280;42565;53.342;-1.534;2022-07-23T08:45:18;99190.98;;;18.04;55.22
56689;BME280;42565;53.342;-1.534;2022-07-23T08:47:45;99190.53;;;18.26;55.89
56689;BME280;42565;53.342;-1.534;2022-07-23T08:50:13;99185.92;;;18.06;55.40
56689;BME280;42565;53.342;-1.534;2022-07-23T08:52:40;99180.41;;;18.38;55.92
56689;BME280;42565;53.342;-1.534;2022-07-23T08:55:08;99188.18;;;17.90;55.18
56689;BME280;42565;53.342;-1.534;2022-07-23T08:57:36;99191.85;;;17.95;55.51
56689;BME280;42565;53.342;-1.534;2022-07-23T09:00:05;99192.08;;;17.48;55.34
56689;BME280;42565;53.342;-1.534;2022-07-23T09:02:38;99193.73;;;17.74;56.79
56689;BME280;42565;53.342;-1.534;2022-07-23T09:05:07;99197.49;;;18.04;56.36
56689;BME280;42565;53.342;-1.534;2022-07-23T09:07:34;99197.30;;;18.39;54.92
56689;BME280;42565;53.342;-1.534;2022-07-23T09:10:08;99197.93;;;19.10;52.82
56689;BME280;42565;53.342;-1.534;2022-07-23T09:12:35;99200.73;;;19.64;50.94
56689;BME280;42565;53.342;-1.534;2022-07-23T09:15:05;99201.40;;;17.76;52.62
56689;BME280;42565;53.342;-1.534;2022-07-23T09:17:42;99198.74;;;17.88;52.93
56689;BME280;42565;53.342;-1.534;2022-07-23T09:20:12;99193.18;;;18.34;51.83
56689;BME280;42565;53.342;-1.534;2022-07-23T09:22:41;99199.45;;;18.15;53.32
56689;BME280;42565;53.342;-1.534;2022-07-23T09:25:13;99198.73;;;17.74;54.21
56689;BME280;42565;53.342;-1.534;2022-07-23T09:27:51;99196.99;;;18.23;52.58
56689;BME280;42565;53.342;-1.534;2022-07-23T09:30:20;99193.53;;;18.12;54.64
56689;BME280;42565;53.342;-1.534;2022-07-23T09:33:05;99189.88;;;18.36;54.23
56689;BME280;42565;53.342;-1.534;2022-07-23T09:35:50;99189.96;;;19.22;52.59
56689;BME280;42565;53.342;-1.534;2022-07-23T09:38:19;99191.80;;;19.59;50.36
56689;BME280;42565;53.342;-1.534;2022-07-23T09:40:46;99192.36;;;19.99;50.63
56689;BME280;42565;53.342;-1.534;2022-07-23T09:43:26;99194.62;;;20.20;48.62
56689;BME280;42565;53.342;-1.534;2022-07-23T09:46:17;99193.61;;;19.27;48.96
56689;BME280;42565;53.342;-1.534;2022-07-23T09:48:44;99191.72;;;18.91;51.54
56689;BME280;42565;53.342;-1.534;2022-07-23T09:51:12;99197.46;;;18.85;52.04
56689;BME280;42565;53.342;-1.534;2022-07-23T09:53:39;99191.01;;;18.52;52.79
56689;BME280;42565;53.342;-1.534;2022-07-23T09:56:07;99199.07;;;18.85;51.80
56689;BME280;42565;53.342;-1.534;2022-07-23T09:58:36;99198.92;;;18.55;52.33
56689;BME280;42565;53.342;-1.534;2022-07-23T10:01:06;99200.11;;;18.35;53.23
56689;BME280;42565;53.342;-1.534;2022-07-23T10:03:33;99192.84;;;17.83;53.82
56689;BME280;42565;53.342;-1.534;2022-07-23T10:06:01;99183.14;;;17.16;55.81
56689;BME280;42565;53.342;-1.534;2022-07-23T10:08:28;99188.47;;;17.61;55.33
56689;BME280;42565;53.342;-1.534;2022-07-23T10:10:58;99184.23;;;18.14;55.26
56689;BME280;42565;53.342;-1.534;2022-07-23T10:13:28;99177.64;;;18.11;55.18
56689;BME280;42565;53.342;-1.534;2022-07-23T10:15:55;99187.66;;;18.19;54.62
56689;BME280;42565;53.342;-1.534;2022-07-23T10:18:23;99184.19;;;18.72;51.63
56689;BME280;42565;53.342;-1.534;2022-07-23T10:20:51;99182.64;;;19.27;50.79
56689;BME280;42565;53.342;-1.534;2022-07-23T10:23:22;99190.42;;;18.67;52.37
56689;BME280;42565;53.342;-1.534;2022-07-23T10:26:11;99189.50;;;18.53;51.90
56689;BME280;42565;53.342;-1.534;2022-07-23T10:28:51;99181.89;;;19.58;49.59
56689;BME280;42565;53.342;-1.534;2022-07-23T10:31:40;99182.79;;;19.70;48.62
56689;BME280;42565;53.342;-1.534;2022-07-23T10:34:14;99187.00;;;20.44;47.36
56689;BME280;42565;53.342;-1.534;2022-07-23T10:36:51;99187.22;;;20.00;47.88
56689;BME280;42565;53.342;-1.534;2022-07-23T10:39:24;99186.81;;;19.63;49.76
56689;BME280;42565;53.342;-1.534;2022-07-23T10:41:51;99182.54;;;19.23;50.38
56689;BME280;42565;53.342;-1.534;2022-07-23T10:44:20;99179.25;;;19.74;49.56
56689;BME280;42565;53.342;-1.534;2022-07-23T10:46:57;99177.71;;;20.74;47.67
56689;BME280;42565;53.342;-1.534;2022-07-23T10:49:26;99179.06;;;19.96;47.49
56689;BME280;42565;53.342;-1.534;2022-07-23T10:52:26;99179.78;;;19.62;47.84
56689;BME280;42565;53.342;-1.534;2022-07-23T10:54:55;99171.91;;;20.90;46.16
56689;BME280;42565;53.342;-1.534;2022-07-23T10:57:24;99174.65;;;21.82;44.05
56689;BME280;42565;53.342;-1.534;2022-07-23T11:00:25;99178.15;;;22.06;43.32
56689;BME280;42565;53.342;-1.534;2022-07-23T11:02:54;99175.55;;;21.90;43.65
56689;BME280;42565;53.342;-1.534;2022-07-23T11:05:23;99175.18;;;20.92;42.64
56689;BME280;42565;53.342;-1.534;2022-07-23T11:08:22;99173.23;;;20.87;41.79
56689;BME280;42565;53.342;-1.534;2022-07-23T11:10:52;99166.24;;;21.14;43.63
56689;BME280;42565;53.342;-1.534;2022-07-23T11:13:52;99166.30;;;20.61;44.81
56689;BME280;42565;53.342;-1.534;2022-07-23T11:16:24;99165.74;;;19.76;44.29
56689;BME280;42565;53.342;-1.534;2022-07-23T11:18:58;99168.03;;;20.11;45.17
56689;BME280;42565;53.342;-1.534;2022-07-23T11:21:43;99170.40;;;19.68;45.09
56689;BME280;42565;53.342;-1.534;2022-07-23T11:24:12;99175.93;;;19.69;45.36
56689;BME280;42565;53.342;-1.534;2022-07-23T11:26:44;99178.88;;;19.22;46.53
56689;BME280;42565;53.342;-1.534;2022-07-23T11:29:47;99179.98;;;19.78;46.01
56689;BME280;42565;53.342;-1.534;2022-07-23T11:32:23;99173.89;;;19.39;46.67
56689;BME280;42565;53.342;-1.534;2022-07-23T11:34:51;99173.33;;;19.76;46.02
56689;BME280;42565;53.342;-1.534;2022-07-23T11:37:37;99169.13;;;18.76;46.93
56689;BME280;42565;53.342;-1.534;2022-07-23T11:40:08;99171.57;;;19.67;45.37
56689;BME280;42565;53.342;-1.534;2022-07-23T11:42:37;99171.01;;;19.37;46.05
56689;BME280;42565;53.342;-1.534;2022-07-23T11:45:06;99175.44;;;19.07;46.52
56689;BME280;42565;53.342;-1.534;2022-07-23T11:47:34;99170.08;;;19.36;46.90
56689;BME280;42565;53.342;-1.534;2022-07-23T11:50:04;99166.89;;;18.81;47.29
56689;BME280;42565;53.342;-1.534;2022-07-23T11:52:31;99162.79;;;18.98;47.42
56689;BME280;42565;53.342;-1.534;2022-07-23T11:55:01;99165.22;;;18.59;48.64
56689;BME280;42565;53.342;-1.534;2022-07-23T11:57:30;99172.38;;;19.39;47.77
56689;BME280;42565;53.342;-1.534;2022-07-23T12:00:05;99179.73;;;19.23;48.62
56689;BME280;42565;53.342;-1.534;2022-07-23T12:02:33;99166.68;;;19.55;47.79
56689;BME280;42565;53.342;-1.534;2022-07-23T12:04:59;99162.63;;;18.74;49.55
56689;BME280;42565;53.342;-1.534;2022-07-23T12:07:30;99164.80;;;19.14;48.62
56689;BME280;42565;53.342;-1.534;2022-07-23T12:09:59;99168.17;;;19.58;47.50
56689;BME280;42565;53.342;-1.534;2022-07-23T12:12:26;99169.63;;;19.38;47.58
56689;BME280;42565;53.342;-1.534;2022-07-23T12:14:55;99172.88;;;18.74;49.99
56689;BME280;42565;53.342;-1.534;2022-07-23T12:17:29;99171.97;;;18.83;49.46
56689;BME280;42565;53.342;-1.534;2022-07-23T12:19:57;99173.26;;;19.12;49.08
56689;BME280;42565;53.342;-1.534;2022-07-23T12:22:26;99174.88;;;20.02;47.58
56689;BME280;42565;53.342;-1.534;2022-07-23T12:24:56;99172.61;;;20.11;47.08
56689;BME280;42565;53.342;-1.534;2022-07-23T12:27:24;99170.54;;;20.67;45.92
56689;BME280;42565;53.342;-1.534;2022-07-23T12:29:51;99172.83;;;20.61;44.37
56689;BME280;42565;53.342;-1.534;2022-07-23T12:32:21;99177.06;;;20.00;46.22
56689;BME280;42565;53.342;-1.534;2022-07-23T12:34:51;99180.03;;;19.50;46.73
56689;BME280;42565;53.342;-1.534;2022-07-23T12:37:27;99179.61;;;18.84;48.45
56689;BME280;42565;53.342;-1.534;2022-07-23T12:39:55;99175.94;;;19.56;47.77
56689;BME280;42565;53.342;-1.534;2022-07-23T12:42:22;99172.30;;;19.22;47.79
56689;BME280;42565;53.342;-1.534;2022-07-23T12:45:07;99166.78;;;19.38;47.40
56689;BME280;42565;53.342;-1.534;2022-07-23T12:47:55;99161.15;;;19.39;47.42
56689;BME280;42565;53.342;-1.534;2022-07-23T12:50:42;99152.98;;;19.77;47.23
56689;BME280;42565;53.342;-1.534;2022-07-23T12:53:12;99156.95;;;19.60;46.88
56689;BME280;42565;53.342;-1.534;2022-07-23T12:55:41;99155.21;;;19.06;47.82
56689;BME280;42565;53.342;-1.534;2022-07-23T12:58:11;99155.46;;;19.20;48.93
56689;BME280;42565;53.342;-1.534;2022-07-23T13:01:23;99154.90;;;18.88;48.79
56689;BME280;42565;53.342;-1.534;2022-07-23T13:03:57;99150.54;;;18.37;50.86
56689;BME280;42565;53.342;-1.534;2022-07-23T13:06:26;99146.33;;;18.42;51.12